createdAt,value
2022-07-25T00:02:09.155Z,20.30
2022-07-25T00:04:36.359Z,20.30
2022-07-25T00:07:03.506Z,20.30
2022-07-25T00:09:30.370Z,20.30
2022-07-25T00:11:57.486Z,20.30
2022-07-25T00:14:24.458Z,20.30
2022-07-25T00:16:51.300Z,20.30
2022-07-25T00:19:18.750Z,20.30
2022-07-25T00:21:45.605Z,20.20
2022-07-25T00:24:12.371Z,20.10
2022-07-25T00:26:40.475Z,20.00
2022-07-25T00:29:07.976Z,19.90
2022-07-25T00:31:35.436Z,20.00
2022-07-25T00:34:03.182Z,20.10
2022-07-25T00:36:30.146Z,20.10
2022-07-25T00:38:56.933Z,19.90
2022-07-25T00:41:23.960Z,20.10
2022-07-25T00:43:50.963Z,20.10
2022-07-25T00:46:19.092Z,20.00
2022-07-25T00:48:46.378Z,20.00
2022-07-25T00:51:13.402Z,20.10
2022-07-25T00:53:40.235Z,20.10
2022-07-25T00:56:07.740Z,20.10
2022-07-25T00:58:35.389Z,20.00
2022-07-25T01:01:02.613Z,20.00
2022-07-25T01:03:29.596Z,20.00
2022-07-25T01:05:56.605Z,19.80
2022-07-25T01:08:23.946Z,19.80
2022-07-25T01:10:51.161Z,19.80
2022-07-25T01:13:18.033Z,19.80
2022-07-25T01:15:48.086Z,19.80
2022-07-25T01:18:15.017Z,19.80
2022-07-25T01:20:41.992Z,19.80
2022-07-25T01:23:08.794Z,19.70
2022-07-25T01:25:35.661Z,19.80
2022-07-25T01:28:03.110Z,19.70
2022-07-25T01:30:30.114Z,19.60
2022-07-25T01:32:56.988Z,19.50
2022-07-25T01:35:24.057Z,19.60
2022-07-25T01:37:51.183Z,19.50
2022-07-25T01:40:18.017Z,19.50
2022-07-25T01:42:45.371Z,19.50
2022-07-25T01:45:13.168Z,19.40
2022-07-25T01:47:40.188Z,19.30
2022-07-25T01:50:08.052Z,19.30
2022-07-25T01:52:36.503Z,19.30
2022-07-25T01:55:03.796Z,19.50
2022-07-25T01:57:33.266Z,19.40
2022-07-25T02:00:00.330Z,19.30
2022-07-25T02:02:27.333Z,19.40
2022-07-25T02:04:54.395Z,19.30
2022-07-25T02:07:21.344Z,19.30
2022-07-25T02:09:50.151Z,19.20
2022-07-25T02:12:20.396Z,19.20
2022-07-25T02:14:47.194Z,19.20
2022-07-25T02:17:14.170Z,19.30
2022-07-25T02:19:41.036Z,19.20
2022-07-25T02:22:08.379Z,19.10
2022-07-25T02:24:37.089Z,19.20
2022-07-25T02:27:05.158Z,19.10
2022-07-25T02:29:32.392Z,19.00
2022-07-25T02:31:59.541Z,19.00
2022-07-25T02:34:26.344Z,19.00
2022-07-25T02:36:53.365Z,19.00
2022-07-25T02:39:21.220Z,19.00
2022-07-25T02:41:48.071Z,18.90
2022-07-25T02:44:14.875Z,18.90
2022-07-25T02:46:41.726Z,18.90
2022-07-25T02:49:09.053Z,19.00
2022-07-25T02:51:35.893Z,19.00
2022-07-25T02:54:02.765Z,19.00
2022-07-25T02:56:30.308Z,19.00
2022-07-25T02:58:59.057Z,18.90
2022-07-25T03:01:26.051Z,18.90
2022-07-25T03:03:53.102Z,18.90
2022-07-25T03:06:19.946Z,18.80
2022-07-25T03:08:46.750Z,18.80
2022-07-25T03:11:14.180Z,18.60
2022-07-25T03:13:41.117Z,18.60
2022-07-25T03:16:08.677Z,18.60
2022-07-25T03:18:35.562Z,18.80
2022-07-25T03:21:02.553Z,18.70
2022-07-25T03:23:31.006Z,18.80
2022-07-25T03:25:58.121Z,18.60
2022-07-25T03:28:25.286Z,18.50
2022-07-25T03:30:52.975Z,18.40
2022-07-25T03:33:20.175Z,18.40
2022-07-25T03:35:47.115Z,18.50
2022-07-25T03:38:14.146Z,18.40
2022-07-25T03:40:41.005Z,18.40
2022-07-25T03:43:07.875Z,18.60
2022-07-25T03:45:34.903Z,18.60
2022-07-25T03:48:02.063Z,18.40
2022-07-25T03:50:28.942Z,18.40
2022-07-25T03:52:55.987Z,18.50
2022-07-25T03:55:22.869Z,18.30
2022-07-25T03:57:49.740Z,18.40
2022-07-25T04:00:17.649Z,18.40
2022-07-25T04:02:44.861Z,18.30
2022-07-25T04:05:11.756Z,18.50
2022-07-25T04:07:38.959Z,18.30
2022-07-25T04:10:06.862Z,18.50
2022-07-25T04:12:33.948Z,18.50
2022-07-25T04:15:01.238Z,18.40
2022-07-25T04:17:28.270Z,18.40
2022-07-25T04:19:55.056Z,18.40
2022-07-25T04:22:22.481Z,18.40
2022-07-25T04:24:49.266Z,18.50
2022-07-25T04:27:16.692Z,18.50
2022-07-25T04:29:43.662Z,18.60
2022-07-25T04:32:10.713Z,18.60
2022-07-25T04:34:37.560Z,18.60
2022-07-25T04:37:04.387Z,18.70
2022-07-25T04:39:31.394Z,18.80
2022-07-25T04:41:58.481Z,18.80
2022-07-25T04:44:25.294Z,18.80
2022-07-25T04:46:52.261Z,19.00
2022-07-25T04:49:19.114Z,19.00
2022-07-25T04:51:45.919Z,19.20
2022-07-25T04:54:12.752Z,19.20
2022-07-25T04:56:39.610Z,19.30
2022-07-25T04:59:07.192Z,19.30
2022-07-25T05:01:35.210Z,19.20
2022-07-25T05:04:02.311Z,19.20
2022-07-25T05:06:29.285Z,19.40
2022-07-25T05:08:56.159Z,19.40
2022-07-25T05:11:23.034Z,19.40
2022-07-25T05:13:49.852Z,19.60
2022-07-25T05:16:16.919Z,19.70
2022-07-25T05:18:43.843Z,19.90
2022-07-25T05:21:13.537Z,20.10
2022-07-25T05:23:41.514Z,20.20
2022-07-25T05:26:08.495Z,20.40
2022-07-25T05:28:35.683Z,20.70
2022-07-25T05:31:02.557Z,20.90
2022-07-25T05:33:29.681Z,20.90
2022-07-25T05:35:56.561Z,21.00
2022-07-25T05:38:23.543Z,21.30
2022-07-25T05:40:52.153Z,21.30
2022-07-25T05:43:19.280Z,21.40
2022-07-25T05:45:47.419Z,21.60
2022-07-25T05:48:15.035Z,21.80
2022-07-25T05:50:42.019Z,22.10
2022-07-25T05:53:09.291Z,22.30
2022-07-25T05:55:36.107Z,22.50
2022-07-25T05:58:08.580Z,22.80
2022-07-25T06:00:36.005Z,23.00
2022-07-25T06:03:03.092Z,23.20
2022-07-25T06:05:30.270Z,23.10
2022-07-25T06:07:57.116Z,23.40
2022-07-25T06:10:24.345Z,23.50
2022-07-25T06:12:51.217Z,23.70
2022-07-25T06:15:22.833Z,23.90
2022-07-25T06:17:54.104Z,24.20
2022-07-25T06:20:20.997Z,24.30
2022-07-25T06:22:47.958Z,24.40
2022-07-25T06:25:15.191Z,24.60
2022-07-25T06:27:42.366Z,24.90
2022-07-25T06:30:19.233Z,24.90
2022-07-25T06:32:46.907Z,25.00
2022-07-25T06:35:13.685Z,25.20
2022-07-25T06:37:40.776Z,25.10
2022-07-25T06:40:09.078Z,25.30
2022-07-25T06:42:46.019Z,25.30
2022-07-25T06:45:13.875Z,25.20
2022-07-25T06:47:42.020Z,25.20
2022-07-25T06:50:11.652Z,25.50
2022-07-25T06:52:39.219Z,25.70
2022-07-25T06:55:07.582Z,25.90
2022-07-25T06:57:34.565Z,26.20
2022-07-25T07:00:01.692Z,26.10
2022-07-25T07:02:28.554Z,26.10
2022-07-25T07:04:55.517Z,26.40
2022-07-25T07:07:22.405Z,26.50
2022-07-25T07:09:49.184Z,26.60
2022-07-25T07:12:15.973Z,26.50
2022-07-25T07:14:44.382Z,26.80
2022-07-25T07:17:11.521Z,26.90
2022-07-25T07:19:44.428Z,27.10
2022-07-25T07:22:11.690Z,27.20
2022-07-25T07:24:44.053Z,27.30
2022-07-25T07:27:12.094Z,27.20
2022-07-25T07:29:39.005Z,27.30
2022-07-25T07:32:07.089Z,27.50
2022-07-25T07:34:33.945Z,27.60
2022-07-25T07:37:01.540Z,27.70
2022-07-25T07:39:28.453Z,27.90
2022-07-25T07:41:55.322Z,27.90
2022-07-25T07:44:22.475Z,27.90
2022-07-25T07:46:49.436Z,28.00
2022-07-25T07:49:16.439Z,28.10
2022-07-25T07:51:43.808Z,28.30
2022-07-25T07:54:28.973Z,28.50
2022-07-25T07:56:55.895Z,28.60
2022-07-25T07:59:22.737Z,28.60
2022-07-25T08:01:49.639Z,28.80
2022-07-25T08:04:16.954Z,29.10
2022-07-25T08:06:43.798Z,29.30
2022-07-25T08:09:10.670Z,29.30
2022-07-25T08:11:37.446Z,29.60
2022-07-25T08:14:05.484Z,29.90
2022-07-25T08:16:33.320Z,30.00
2022-07-25T08:19:00.243Z,29.90
2022-07-25T08:21:27.280Z,29.90
2022-07-25T08:23:54.332Z,29.90
2022-07-25T08:26:21.160Z,30.00
2022-07-25T08:28:52.585Z,30.00
2022-07-25T08:31:27.997Z,30.00
2022-07-25T08:33:55.127Z,30.20
2022-07-25T08:36:21.949Z,30.70
2022-07-25T08:38:48.736Z,30.60
2022-07-25T08:41:15.647Z,30.80
2022-07-25T08:43:44.564Z,30.70
2022-07-25T08:46:12.312Z,30.90
2022-07-25T08:48:40.359Z,31.10
2022-07-25T08:51:08.109Z,31.00
2022-07-25T08:53:36.735Z,31.40
2022-07-25T08:56:11.593Z,31.50
2022-07-25T08:58:41.822Z,31.90
2022-07-25T09:01:11.544Z,32.60
2022-07-25T09:03:38.896Z,32.70
2022-07-25T09:06:22.901Z,32.60
2022-07-25T09:08:57.527Z,32.10
2022-07-25T09:11:30.330Z,32.00
2022-07-25T09:14:05.840Z,32.10
2022-07-25T09:16:43.204Z,31.90
2022-07-25T09:19:22.547Z,32.60
2022-07-25T09:22:07.520Z,33.20
2022-07-25T09:24:44.444Z,33.20
2022-07-25T09:27:12.863Z,33.80
2022-07-25T09:29:42.501Z,34.20
2022-07-25T09:32:20.603Z,33.80
2022-07-25T09:34:49.177Z,34.40
2022-07-25T09:37:18.435Z,34.90
2022-07-25T09:39:50.484Z,35.30
2022-07-25T09:42:22.406Z,35.40
2022-07-25T09:45:04.139Z,35.10
2022-07-25T09:47:33.872Z,35.50
2022-07-25T09:50:01.128Z,35.80
2022-07-25T09:52:28.063Z,35.80
2022-07-25T09:54:54.873Z,36.30
2022-07-25T09:57:24.036Z,36.10
2022-07-25T09:59:50.880Z,37.40
2022-07-25T10:02:36.439Z,37.70
2022-07-25T10:05:06.361Z,37.80
2022-07-25T10:07:38.093Z,37.70
2022-07-25T10:10:05.940Z,38.20
2022-07-25T10:12:33.102Z,38.60
2022-07-25T10:15:06.378Z,38.40
2022-07-25T10:17:34.081Z,39.00
2022-07-25T10:20:01.335Z,38.90
2022-07-25T10:22:56.290Z,38.80
2022-07-25T10:25:24.134Z,38.40
2022-07-25T10:28:00.875Z,39.00
2022-07-25T10:30:34.445Z,39.30
2022-07-25T10:33:05.766Z,39.30
2022-07-25T10:35:33.269Z,40.00
2022-07-25T10:38:02.789Z,40.30
2022-07-25T10:40:44.732Z,40.80
2022-07-25T10:43:19.217Z,39.90
2022-07-25T10:45:55.011Z,39.70
2022-07-25T10:48:30.485Z,40.00
2022-07-25T10:51:09.277Z,40.90
2022-07-25T10:53:48.969Z,40.30
2022-07-25T10:56:19.874Z,40.50
2022-07-25T10:59:01.412Z,40.80
2022-07-25T11:01:33.668Z,40.70
2022-07-25T11:04:05.885Z,39.80
2022-07-25T11:06:37.839Z,41.10
2022-07-25T11:09:19.123Z,41.60
2022-07-25T11:11:49.535Z,40.00
2022-07-25T11:14:20.552Z,39.60
2022-07-25T11:16:50.452Z,39.90
2022-07-25T11:19:17.813Z,40.30
2022-07-25T11:21:52.446Z,39.30
2022-07-25T11:24:19.701Z,38.60
2022-07-25T11:26:51.446Z,38.30
2022-07-25T11:29:27.183Z,38.80
2022-07-25T11:31:56.557Z,39.30
2022-07-25T11:34:27.459Z,39.80
2022-07-25T11:36:57.346Z,39.30
2022-07-25T11:39:29.302Z,40.50
2022-07-25T11:42:17.847Z,40.80
2022-07-25T11:44:50.373Z,41.50
2022-07-25T11:47:33.449Z,42.10
2022-07-25T11:50:03.717Z,42.40
2022-07-25T11:52:33.009Z,41.90
2022-07-25T11:55:03.557Z,41.40
2022-07-25T11:57:33.468Z,41.30
2022-07-25T12:00:02.748Z,40.30
2022-07-25T12:02:36.898Z,40.70
2022-07-25T12:05:05.142Z,40.60
2022-07-25T12:07:40.927Z,41.40
2022-07-25T12:10:10.458Z,41.20
2022-07-25T12:12:48.694Z,41.00
2022-07-25T12:15:19.843Z,41.50
2022-07-25T12:17:47.480Z,41.90
2022-07-25T12:20:22.730Z,42.00
2022-07-25T12:22:52.039Z,42.20
2022-07-25T12:25:19.263Z,41.10
2022-07-25T12:27:46.326Z,39.80
2022-07-25T12:30:14.616Z,38.60
2022-07-25T12:32:42.394Z,37.20
2022-07-25T12:35:11.220Z,37.10
2022-07-25T12:37:38.439Z,37.10
2022-07-25T12:40:06.669Z,37.40
2022-07-25T12:42:33.495Z,38.90
2022-07-25T12:45:00.525Z,40.60
2022-07-25T12:47:28.603Z,42.10
2022-07-25T12:49:55.965Z,42.20
2022-07-25T12:52:22.908Z,41.40
2022-07-25T12:54:49.716Z,42.00
2022-07-25T12:57:17.140Z,41.30
2022-07-25T12:59:43.973Z,40.90
2022-07-25T13:02:11.268Z,40.00
2022-07-25T13:04:38.733Z,39.20
2022-07-25T13:07:06.098Z,38.10
2022-07-25T13:09:33.404Z,37.50
2022-07-25T13:12:00.305Z,37.90
2022-07-25T13:14:27.154Z,38.30
2022-07-25T13:16:54.097Z,40.30
2022-07-25T13:19:20.955Z,41.00
2022-07-25T13:21:47.758Z,41.50
2022-07-25T13:24:14.755Z,39.60
2022-07-25T13:26:41.640Z,39.30
2022-07-25T13:29:11.584Z,39.00
2022-07-25T13:31:41.065Z,38.50
2022-07-25T13:34:09.383Z,38.10
2022-07-25T13:36:39.444Z,37.90
2022-07-25T13:39:06.807Z,38.10
2022-07-25T13:41:33.884Z,37.70
2022-07-25T13:44:00.829Z,37.40
2022-07-25T13:46:27.597Z,36.40
2022-07-25T13:48:55.573Z,36.80
2022-07-25T13:51:22.560Z,36.60
2022-07-25T13:53:49.784Z,36.10
2022-07-25T13:56:16.577Z,35.60
2022-07-25T13:58:43.612Z,35.40
2022-07-25T14:01:11.671Z,35.20
2022-07-25T14:03:38.934Z,35.10
2022-07-25T14:06:06.334Z,34.10
2022-07-25T14:08:33.219Z,33.70
2022-07-25T14:11:00.939Z,34.20
2022-07-25T14:13:27.772Z,35.50
2022-07-25T14:15:55.651Z,37.10
2022-07-25T14:18:22.494Z,39.30
2022-07-25T14:20:50.108Z,42.50
2022-07-25T14:23:17.255Z,43.90
2022-07-25T14:25:44.116Z,43.20
2022-07-25T14:28:11.129Z,42.00
2022-07-25T14:30:38.532Z,41.00
2022-07-25T14:33:05.417Z,42.00
2022-07-25T14:35:32.933Z,41.90
2022-07-25T14:38:00.024Z,41.50
2022-07-25T14:40:27.020Z,40.70
2022-07-25T14:42:54.078Z,38.00
2022-07-25T14:45:21.912Z,35.90
2022-07-25T14:47:48.889Z,34.60
2022-07-25T14:50:16.332Z,34.20
2022-07-25T14:52:43.228Z,33.80
2022-07-25T14:55:10.164Z,33.50
2022-07-25T14:57:37.307Z,33.40
2022-07-25T15:00:05.641Z,33.10
2022-07-25T15:02:32.536Z,32.80
2022-07-25T15:04:59.452Z,32.70
2022-07-25T15:07:26.340Z,32.50
2022-07-25T15:09:53.213Z,32.40
2022-07-25T15:12:20.803Z,32.20
2022-07-25T15:14:47.633Z,32.00
2022-07-25T15:17:14.485Z,32.30
2022-07-25T15:19:41.281Z,32.20
2022-07-25T15:22:08.183Z,32.00
2022-07-25T15:24:49.536Z,31.20
2022-07-25T15:27:21.792Z,31.10
2022-07-25T15:29:48.592Z,31.40
2022-07-25T15:32:15.572Z,30.70
2022-07-25T15:34:42.442Z,30.40
2022-07-25T15:37:09.711Z,30.80
2022-07-25T15:39:36.493Z,30.60
2022-07-25T15:42:03.292Z,30.60
2022-07-25T15:44:32.596Z,32.30
2022-07-25T15:46:59.566Z,34.80
2022-07-25T15:49:26.512Z,37.20
2022-07-25T15:51:53.404Z,38.30
2022-07-25T15:54:20.245Z,39.80
2022-07-25T15:56:47.335Z,39.20
2022-07-25T15:59:14.603Z,39.30
2022-07-25T16:01:43.391Z,38.80
2022-07-25T16:04:11.319Z,39.30
2022-07-25T16:06:38.225Z,39.20
2022-07-25T16:09:06.394Z,39.30
2022-07-25T16:11:35.639Z,40.00
2022-07-25T16:14:02.489Z,39.80
2022-07-25T16:16:29.390Z,39.50
2022-07-25T16:18:57.704Z,39.70
2022-07-25T16:21:24.556Z,38.90
2022-07-25T16:23:51.405Z,37.90
2022-07-25T16:26:18.356Z,37.10
2022-07-25T16:28:46.659Z,37.40
2022-07-25T16:31:13.697Z,37.20
2022-07-25T16:33:41.090Z,37.60
2022-07-25T16:36:08.557Z,38.20
2022-07-25T16:38:35.383Z,36.90
2022-07-25T16:41:02.265Z,36.40
2022-07-25T16:43:29.105Z,36.70
2022-07-25T16:45:55.928Z,36.70
2022-07-25T16:48:22.830Z,37.00
2022-07-25T16:50:49.655Z,37.50
2022-07-25T16:53:16.541Z,38.00
2022-07-25T16:55:43.394Z,38.00
2022-07-25T16:58:10.333Z,37.90
2022-07-25T17:00:38.170Z,37.90
2022-07-25T17:03:05.313Z,37.90
2022-07-25T17:05:32.409Z,37.20
2022-07-25T17:07:59.883Z,36.60
2022-07-25T17:10:27.811Z,36.90
2022-07-25T17:12:54.679Z,37.20
2022-07-25T17:15:21.928Z,37.60
2022-07-25T17:17:48.879Z,37.80
2022-07-25T17:20:16.022Z,37.40
2022-07-25T17:22:42.860Z,35.80
2022-07-25T17:25:09.950Z,35.30
2022-07-25T17:27:37.246Z,34.70
2022-07-25T17:30:05.421Z,34.30
2022-07-25T17:32:32.284Z,34.30
2022-07-25T17:34:59.707Z,34.00
2022-07-25T17:37:27.815Z,32.90
2022-07-25T17:39:55.111Z,32.40
2022-07-25T17:42:22.326Z,32.00
2022-07-25T17:44:50.264Z,31.60
2022-07-25T17:47:17.677Z,31.30
2022-07-25T17:49:45.226Z,31.00
2022-07-25T17:52:15.953Z,30.70
2022-07-25T17:54:43.451Z,30.40
2022-07-25T17:57:10.512Z,30.30
2022-07-25T17:59:37.428Z,30.10
2022-07-25T18:02:04.332Z,29.90
2022-07-25T18:04:31.547Z,29.80
2022-07-25T18:06:58.720Z,29.60
2022-07-25T18:09:25.582Z,29.50
2022-07-25T18:11:52.487Z,29.40
2022-07-25T18:14:19.327Z,29.20
2022-07-25T18:16:46.484Z,29.00
2022-07-25T18:19:13.944Z,28.90
2022-07-25T18:21:40.970Z,28.70
2022-07-25T18:24:08.246Z,28.50
2022-07-25T18:26:35.368Z,28.50
2022-07-25T18:29:02.224Z,28.30
2022-07-25T18:31:29.021Z,28.30
2022-07-25T18:33:56.036Z,28.20
2022-07-25T18:36:23.140Z,28.00
2022-07-25T18:38:53.665Z,27.90
2022-07-25T18:41:30.097Z,27.80
2022-07-25T18:43:57.804Z,27.70
2022-07-25T18:46:25.249Z,27.60
2022-07-25T18:48:53.123Z,27.50
2022-07-25T18:51:20.847Z,27.40
2022-07-25T18:53:48.785Z,27.40
2022-07-25T18:56:16.087Z,27.30
2022-07-25T18:58:43.687Z,27.30
2022-07-25T19:01:11.266Z,27.10
2022-07-25T19:03:38.499Z,27.00
2022-07-25T19:06:06.733Z,27.00
2022-07-25T19:08:33.639Z,27.00
2022-07-25T19:11:00.700Z,26.90
2022-07-25T19:13:48.171Z,26.90
2022-07-25T19:16:15.496Z,26.80
2022-07-25T19:18:42.940Z,26.70
2022-07-25T19:21:09.994Z,26.60
2022-07-25T19:23:36.808Z,26.50
2022-07-25T19:26:04.312Z,26.40
2022-07-25T19:28:31.096Z,26.30
2022-07-25T19:30:58.055Z,26.20
2022-07-25T19:33:25.392Z,26.20
2022-07-25T19:36:01.817Z,26.20
2022-07-25T19:38:28.616Z,26.20
2022-07-25T19:40:55.455Z,26.10
2022-07-25T19:43:22.285Z,26.00
2022-07-25T19:45:49.265Z,26.00
2022-07-25T19:48:17.049Z,25.90
2022-07-25T19:50:44.676Z,25.80
2022-07-25T19:53:11.714Z,25.80
2022-07-25T19:55:38.600Z,25.70
2022-07-25T19:58:08.298Z,25.60
2022-07-25T20:00:35.313Z,25.60
2022-07-25T20:03:02.143Z,25.60
2022-07-25T20:05:29.244Z,25.60
2022-07-25T20:07:56.091Z,25.50
2022-07-25T20:10:24.005Z,25.40
2022-07-25T20:12:50.819Z,25.40
2022-07-25T20:15:17.692Z,25.30
2022-07-25T20:17:44.579Z,25.50
2022-07-25T20:20:11.989Z,25.40
2022-07-25T20:22:38.836Z,25.30
2022-07-25T20:25:07.557Z,25.20
2022-07-25T20:27:35.248Z,25.30
2022-07-25T20:30:03.764Z,25.10
2022-07-25T20:32:31.002Z,25.00
2022-07-25T20:34:58.776Z,24.90
2022-07-25T20:37:25.600Z,24.70
2022-07-25T20:39:53.220Z,24.60
2022-07-25T20:42:20.992Z,24.80
2022-07-25T20:44:47.885Z,24.50
2022-07-25T20:47:15.984Z,24.50
2022-07-25T20:49:43.613Z,24.60
2022-07-25T20:52:10.441Z,24.50
2022-07-25T20:54:37.405Z,24.60
2022-07-25T20:57:04.675Z,24.60
2022-07-25T20:59:32.064Z,24.70
2022-07-25T21:01:59.098Z,24.70
2022-07-25T21:04:26.031Z,24.60
2022-07-25T21:06:53.012Z,24.40
2022-07-25T21:09:23.480Z,24.50
2022-07-25T21:11:50.356Z,24.40
2022-07-25T21:14:17.179Z,24.50
2022-07-25T21:16:44.208Z,24.40
2022-07-25T21:19:11.463Z,24.20
2022-07-25T21:21:38.516Z,24.30
2022-07-25T21:24:06.448Z,24.20
2022-07-25T21:26:33.856Z,24.20
2022-07-25T21:29:00.924Z,24.30
2022-07-25T21:31:27.898Z,24.30
2022-07-25T21:33:54.713Z,24.20
2022-07-25T21:36:21.553Z,24.10
2022-07-25T21:38:48.320Z,24.10
2022-07-25T21:41:15.416Z,24.10
2022-07-25T21:43:42.337Z,24.00
2022-07-25T21:46:09.228Z,24.00
2022-07-25T21:48:54.585Z,23.90
2022-07-25T21:51:22.904Z,24.00
2022-07-25T21:53:51.788Z,23.80
2022-07-25T21:56:20.005Z,23.90
2022-07-25T21:58:46.822Z,23.80
2022-07-25T22:01:14.561Z,23.80
2022-07-25T22:03:41.541Z,23.80
2022-07-25T22:06:10.097Z,23.70
2022-07-25T22:08:37.271Z,23.60
2022-07-25T22:11:15.699Z,23.60
2022-07-25T22:13:43.541Z,23.60
2022-07-25T22:16:10.486Z,23.60
2022-07-25T22:18:37.414Z,23.50
2022-07-25T22:21:04.235Z,23.50
2022-07-25T22:23:31.051Z,23.30
2022-07-25T22:25:58.014Z,23.20
2022-07-25T22:28:25.102Z,23.20
2022-07-25T22:30:51.925Z,23.10
2022-07-25T22:33:18.781Z,23.10
2022-07-25T22:35:45.552Z,23.20
2022-07-25T22:38:12.422Z,23.30
2022-07-25T22:40:39.230Z,23.20
2022-07-25T22:43:06.233Z,23.20
2022-07-25T22:45:33.226Z,23.10
2022-07-25T22:48:00.110Z,23.10
2022-07-25T22:50:26.990Z,23.00
2022-07-25T22:52:53.799Z,23.00
2022-07-25T22:55:20.788Z,23.00
2022-07-25T22:57:49.610Z,22.90
2022-07-25T23:00:17.180Z,22.80
2022-07-25T23:02:44.054Z,22.70
2022-07-25T23:05:10.936Z,22.70
2022-07-25T23:07:37.866Z,22.70
2022-07-25T23:10:06.246Z,22.70
2022-07-25T23:12:33.512Z,22.70
2022-07-25T23:15:00.439Z,22.70
2022-07-25T23:17:27.338Z,22.70
2022-07-25T23:19:55.975Z,22.80
2022-07-25T23:22:25.115Z,22.70
2022-07-25T23:24:52.152Z,22.90
2022-07-25T23:27:19.213Z,22.90
2022-07-25T23:29:46.067Z,22.90
2022-07-25T23:32:12.979Z,22.90
2022-07-25T23:34:40.255Z,22.90
2022-07-25T23:37:07.242Z,23.00
2022-07-25T23:39:34.065Z,23.00
2022-07-25T23:42:01.102Z,23.00
2022-07-25T23:44:29.060Z,23.00
2022-07-25T23:46:57.344Z,22.90
2022-07-25T23:49:24.373Z,22.90
2022-07-25T23:51:51.446Z,22.90
2022-07-25T23:54:18.261Z,22.80
2022-07-25T23:56:45.254Z,23.00
2022-07-25T23:59:12.186Z,22.90
